Time;durP1;ratioP1;P1;durP2;ratioP2;P2;SDS_P1;SDS_P2;PMS_P1;PMS_P2;Temp;Humidity;BMP_temperature;BMP_pressure;BME280_temperature;BME280_humidity;BME280_pressure;Samples;Min_cycle;Max_cycle;Signal;HPM_P1;HPM_P2
2021/12/12 00:00:46;;;;;;;32.40;16.10;;;;;;;-0.96;91.75;100008.60;103940;1314;24384;-30
2021/12/12 00:03:20;;;;;;;19.90;9.80;;;;;;;-0.84;91.07;100010.58;103906;1311;23804;-27
2021/12/12 00:05:50;;;;;;;28.90;16.80;;;;;;;-0.93;91.13;100010.48;104163;1314;24194;-30
2021/12/12 00:08:17;;;;;;;36.20;13.50;;;;;;;-0.93;91.26;100009.44;103924;1314;24251;-26
2021/12/12 00:10:44;;;;;;;37.00;14.20;;;;;;;-1.03;91.25;100011.73;104139;1315;24141;-30
2021/12/12 00:13:14;;;;;;;17.40;11.20;;;;;;;-1.04;91.66;100013.57;104304;1315;24200;-30
2021/12/12 00:15:40;;;;;;;18.50;7.70;;;;;;;-0.91;91.15;100014.19;104050;1315;24102;-30
2021/12/12 00:18:06;;;;;;;25.80;14.30;;;;;;;-0.99;91.44;100006.72;103826;1316;22792;-26
2021/12/12 00:20:33;;;;;;;30.80;17.90;;;;;;;-0.90;91.00;99998.83;104244;1316;22440;-26
2021/12/12 00:22:59;;;;;;;34.50;16.80;;;;;;;-0.88;91.00;99997.84;104260;1313;24222;-30
2021/12/12 00:25:27;;;;;;;60.90;18.60;;;;;;;-0.86;90.42;99992.94;103931;1315;22425;-30
2021/12/12 00:27:53;;;;;;;23.40;12.90;;;;;;;-0.93;91.00;99995.70;103735;1315;22449;-30
2021/12/12 00:30:19;;;;;;;46.70;17.70;;;;;;;-0.94;90.82;99996.66;104120;1316;22481;-30
2021/12/12 00:32:45;;;;;;;49.80;17.80;;;;;;;-1.04;91.23;99988.04;104340;1315;22724;-27
2021/12/12 00:35:12;;;;;;;15.50;10.10;;;;;;;-1.23;91.87;99992.38;104112;1314;24246;-26
2021/12/12 00:37:38;;;;;;;51.80;18.10;;;;;;;-1.18;91.79;99991.63;104229;1315;24154;-27
2021/12/12 00:40:11;;;;;;;40.90;23.40;;;;;;;-1.25;91.78;99994.96;103962;1316;23838;-30
2021/12/12 00:42:38;;;;;;;29.30;16.00;;;;;;;-1.33;91.85;99998.71;104209;1311;24292;-30
2021/12/12 00:45:08;;;;;;;34.10;16.90;;;;;;;-1.37;91.77;99994.59;103913;1316;24160;-26
2021/12/12 00:47:34;;;;;;;40.90;14.20;;;;;;;-1.41;91.27;99997.02;104075;1316;23982;-26
2021/12/12 00:50:01;;;;;;;31.20;13.90;;;;;;;-1.46;91.00;99994.88;104182;1310;22439;-26
2021/12/12 00:52:26;;;;;;;48.50;20.40;;;;;;;-1.68;91.37;99997.58;103955;1316;24133;-27
2021/12/12 00:54:52;;;;;;;33.70;17.00;;;;;;;-1.86;91.54;99997.94;104026;1314;24121;-30
2021/12/12 00:57:19;;;;;;;26.80;12.40;;;;;;;-1.87;91.28;100002.02;104198;1314;22440;-30
2021/12/12 00:59:46;;;;;;;27.20;15.90;;;;;;;-2.05;91.72;100006.51;104084;1316;22441;-26
2021/12/12 01:02:17;;;;;;;45.90;17.70;;;;;;;-2.15;91.71;100008.96;104455;1314;22845;-26
2021/12/12 01:04:45;;;;;;;40.20;19.90;;;;;;;-2.31;92.51;100007.36;104190;1314;24263;-30
2021/12/12 01:07:14;;;;;;;68.80;18.80;;;;;;;-2.31;92.95;100010.86;104259;1316;22724;-30
2021/12/12 01:09:43;;;;;;;35.50;16.70;;;;;;;-2.41;92.94;100015.02;104124;1314;24230;-30
2021/12/12 01:12:12;;;;;;;38.30;16.30;;;;;;;-2.55;93.45;100017.16;104294;1316;22553;-26
2021/12/12 01:14:41;;;;;;;31.60;14.80;;;;;;;-2.52;93.49;100021.00;104353;1314;22460;-26
2021/12/12 01:17:11;;;;;;;55.20;19.70;;;;;;;-2.58;93.79;100024.56;104294;1315;22746;-30
2021/12/12 01:19:39;;;;;;;47.30;14.90;;;;;;;-2.67;94.26;100023.73;103989;1316;22590;-26
2021/12/12 01:22:08;;;;;;;37.60;14.40;;;;;;;-2.83;94.60;100028.90;103921;1308;24162;-26
2021/12/12 01:24:38;;;;;;;8.70;4.10;;;;;;;-2.91;94.70;100026.42;103636;1314;24247;-30
2021/12/12 01:27:05;;;;;;;33.10;12.60;;;;;;;-2.99;94.88;100020.30;104230;1315;22561;-26
2021/12/12 01:29:31;;;;;;;39.70;16.50;;;;;;;-3.10;94.95;100023.21;104160;1313;24142;-29
2021/12/12 01:31:59;;;;;;;53.20;13.00;;;;;;;-3.28;95.82;100025.41;104259;1314;22467;-30
2021/12/12 01:34:28;;;;;;;52.90;17.70;;;;;;;-3.33;96.12;100024.83;104231;1313;22459;-26
2021/12/12 01:39:33;;;;;;;26.00;11.00;;;;;;;-3.47;96.82;100022.66;104055;1313;22592;-29
2021/12/12 01:42:04;;;;;;;51.50;14.00;;;;;;;-3.39;96.61;100030.23;104334;1314;23986;-26
2021/12/12 01:44:34;;;;;;;37.80;15.90;;;;;;;-3.52;96.60;100029.30;104234;1315;24371;-25
2021/12/12 01:47:08;;;;;;;38.10;14.70;;;;;;;-3.63;97.29;100029.44;103769;1316;23865;-29
2021/12/12 01:49:35;;;;;;;54.80;20.30;;;;;;;-3.60;97.53;100034.32;104053;1315;26108;-29
2021/12/12 01:52:03;;;;;;;52.10;21.40;;;;;;;-3.51;96.96;100038.50;103846;1310;24206;-29
2021/12/12 01:54:32;;;;;;;57.10;24.90;;;;;;;-3.38;96.39;100040.02;104047;1315;22461;-25
2021/12/12 01:56:59;;;;;;;62.70;17.10;;;;;;;-3.58;96.55;100039.10;104192;1313;24247;-29
2021/12/12 01:59:28;;;;;;;39.70;16.90;;;;;;;-3.74;97.01;100050.35;104221;1314;24159;-29
2021/12/12 02:02:00;;;;;;;70.70;26.10;;;;;;;-3.86;97.42;100059.95;104137;1308;22447;-29
2021/12/12 02:04:30;;;;;;;57.20;23.20;;;;;;;-4.03;98.25;100060.11;104210;1315;22902;-26
2021/12/12 02:06:56;;;;;;;51.70;23.50;;;;;;;-3.99;99.13;100057.20;104182;1314;22830;-26
2021/12/12 02:09:22;;;;;;;48.50;21.80;;;;;;;-3.82;98.89;100054.13;104308;1314;22447;-26
2021/12/12 02:11:48;;;;;;;48.80;19.00;;;;;;;-3.84;98.69;100053.52;104286;1305;22436;-25
2021/12/12 02:14:17;;;;;;;46.50;18.40;;;;;;;-4.00;99.02;100053.77;104276;1314;22435;-26
2021/12/12 02:16:46;;;;;;;60.60;22.90;;;;;;;-4.06;99.31;100055.18;103988;1314;22454;-29
2021/12/12 02:19:13;;;;;;;28.40;12.30;;;;;;;-3.90;98.71;100057.43;104110;1314;24132;-29
2021/12/12 02:22:57;;;;;;;25.60;14.30;;;;;;;-3.79;98.38;100057.31;104138;1314;24159;-26
2021/12/12 02:36:56;;;;;;;48.00;21.60;;;;;;;-3.85;98.76;100044.36;104189;1313;22469;-29
2021/12/12 02:39:22;;;;;;;30.80;14.90;;;;;;;-3.77;98.12;100046.16;104201;1304;22925;-29
2021/12/12 02:41:53;;;;;;;31.70;19.20;;;;;;;-3.90;97.69;100042.38;104154;1310;24166;-26
2021/12/12 02:44:22;;;;;;;36.20;13.90;;;;;;;-4.01;98.14;100043.86;103967;1313;25271;-29
2021/12/12 02:46:48;;;;;;;42.00;15.70;;;;;;;-4.13;98.04;100046.48;103945;1314;22569;-26
2021/12/12 02:51:43;;;;;;;31.20;10.90;;;;;;;-4.19;98.34;100050.54;104157;1314;22459;-25
2021/12/12 02:54:10;;;;;;;26.80;9.60;;;;;;;-4.25;98.35;100051.20;104197;1314;24268;-26
2021/12/12 02:56:39;;;;;;;50.00;11.50;;;;;;;-4.30;98.53;100052.34;104208;1314;22942;-25
2021/12/12 02:59:06;;;;;;;54.80;21.40;;;;;;;-4.41;98.87;100048.05;104168;1313;22579;-29
2021/12/12 03:01:37;;;;;;;61.00;22.30;;;;;;;-4.43;99.25;100048.88;104175;1314;22824;-29
2021/12/12 03:04:04;;;;;;;50.20;19.90;;;;;;;-4.50;99.60;100051.01;103992;1307;22518;-25
2021/12/12 03:06:31;;;;;;;38.60;14.10;;;;;;;-4.58;99.97;100049.37;104096;1313;22444;-29
2021/12/12 03:09:00;;;;;;;45.20;20.10;;;;;;;-4.48;99.81;100050.04;104218;1314;22439;-26
2021/12/12 03:11:27;;;;;;;48.60;19.20;;;;;;;-4.65;99.79;100053.39;104153;1311;22720;-25
2021/12/12 03:13:54;;;;;;;46.10;16.40;;;;;;;-4.67;100.00;100054.05;104104;1314;22466;-29
2021/12/12 03:16:20;;;;;;;54.70;19.70;;;;;;;-4.72;100.00;100056.23;103803;1314;24112;-26
2021/12/12 03:18:46;;;;;;;61.90;21.00;;;;;;;-4.72;100.00;100059.56;104216;1314;22544;-29
2021/12/12 03:21:16;;;;;;;69.40;24.30;;;;;;;-4.63;100.00;100067.67;104232;1307;22790;-29
2021/12/12 03:23:45;;;;;;;52.20;18.70;;;;;;;-4.63;100.00;100067.65;104058;1316;22625;-29
2021/12/12 03:26:11;;;;;;;63.40;24.00;;;;;;;-4.63;100.00;100074.95;104149;1304;22440;-29
2021/12/12 03:28:38;;;;;;;235.10;81.90;;;;;;;-4.71;100.00;100073.48;103986;1311;22500;-29
2021/12/12 03:31:10;;;;;;;84.20;28.90;;;;;;;-5.01;99.28;100077.20;104263;1314;22475;-29
2021/12/12 03:33:36;;;;;;;106.90;33.60;;;;;;;-5.31;98.47;100090.11;104105;1314;24145;-26
2021/12/12 03:36:04;;;;;;;80.40;29.60;;;;;;;-5.56;98.12;100098.56;103866;1313;24144;-29
2021/12/12 03:38:30;;;;;;;62.50;22.40;;;;;;;-5.78;97.91;100104.32;104151;1314;22456;-29
2021/12/12 03:40:59;;;;;;;42.20;19.20;;;;;;;-5.89;97.85;100109.96;103833;1314;22507;-25
2021/12/12 03:43:25;;;;;;;43.00;17.40;;;;;;;-5.98;97.76;100109.70;103864;1313;22725;-25
2021/12/12 03:45:51;;;;;;;57.30;21.60;;;;;;;-6.08;97.71;100113.32;104175;1313;24265;-25
2021/12/12 03:48:24;;;;;;;48.50;17.00;;;;;;;-6.17;98.03;100117.94;104205;1314;22560;-26
2021/12/12 03:50:52;;;;;;;70.10;21.30;;;;;;;-6.31;98.00;100124.34;104123;1314;24380;-25
2021/12/12 03:53:17;;;;;;;42.50;19.00;;;;;;;-6.45;97.71;100131.12;104189;1314;22867;-29
2021/12/12 03:55:44;;;;;;;34.90;17.10;;;;;;;-6.54;97.79;100136.25;103854;1314;24288;-26
2021/12/12 03:58:10;;;;;;;53.30;19.70;;;;;;;-6.57;97.81;100136.55;103662;1314;674980;-29
2021/12/12 04:00:40;;;;;;;63.80;17.80;;;;;;;-6.61;97.75;100139.15;104055;1313;22796;-25
2021/12/12 04:03:08;;;;;;;52.40;29.70;;;;;;;-6.66;97.78;100143.55;104134;1310;24132;-29
2021/12/12 04:05:35;;;;;;;36.30;17.40;;;;;;;-6.70;97.69;100149.87;103956;1314;22446;-29
2021/12/12 04:08:01;;;;;;;28.60;13.90;;;;;;;-6.76;97.81;100161.43;103788;1314;24116;-28
2021/12/12 04:10:27;;;;;;;53.20;21.50;;;;;;;-6.79;97.92;100163.81;103647;1314;22565;-29
2021/12/12 04:12:53;;;;;;;44.00;18.20;;;;;;;-6.85;98.08;100163.55;103989;1314;24160;-29
2021/12/12 04:15:19;;;;;;;71.70;25.80;;;;;;;-6.86;98.09;100173.88;104010;1314;24133;-29
2021/12/12 04:17:45;;;;;;;43.10;16.00;;;;;;;-6.86;98.46;100180.50;104009;1311;24148;-25
2021/12/12 04:20:14;;;;;;;223.90;74.30;;;;;;;-6.78;98.67;100181.02;104069;1314;22469;-26
2021/12/12 04:22:40;;;;;;;438.30;126.50;;;;;;;-6.68;98.73;100173.61;104083;1310;22564;-25
2021/12/12 04:25:07;;;;;;;122.10;36.00;;;;;;;-6.60;99.03;100176.70;103797;1314;24151;-26
2021/12/12 04:27:32;;;;;;;132.20;39.40;;;;;;;-6.47;99.22;100181.02;104062;1314;24250;-29
2021/12/12 04:30:03;;;;;;;63.20;27.60;;;;;;;-6.29;99.70;100187.71;104181;1314;24198;-29
2021/12/12 04:32:30;;;;;;;43.00;15.50;;;;;;;-6.18;99.91;100184.90;104154;1316;22447;-26
2021/12/12 04:34:58;;;;;;;88.70;25.70;;;;;;;-6.08;99.98;100188.99;104096;1313;22832;-25
2021/12/12 04:37:24;;;;;;;40.10;16.20;;;;;;;-6.05;99.98;100198.99;103941;1313;24097;-26
2021/12/12 04:39:52;;;;;;;50.50;22.00;;;;;;;-5.96;100.00;100199.61;104117;1310;22810;-29
2021/12/12 04:42:21;;;;;;;68.90;26.60;;;;;;;-5.82;100.00;100197.31;104064;1314;24242;-29
2021/12/12 04:44:48;;;;;;;71.60;24.70;;;;;;;-5.63;100.00;100193.79;103945;1307;22466;-26
2021/12/12 04:52:13;;;;;;;69.80;25.00;;;;;;;-5.36;100.00;100212.02;104310;1316;22456;-29
2021/12/12 04:54:45;;;;;;;62.30;21.40;;;;;;;-5.24;100.00;100209.30;104178;1311;24237;-26
2021/12/12 04:57:21;;;;;;;95.20;26.70;;;;;;;-5.21;99.94;100220.34;104247;1304;22479;-26
2021/12/12 04:59:50;;;;;;;72.80;25.20;;;;;;;-5.19;100.00;100219.71;104011;1314;22553;-29
2021/12/12 05:02:21;;;;;;;75.00;24.50;;;;;;;-5.07;99.99;100218.77;104240;1310;24219;-25
2021/12/12 05:04:50;;;;;;;79.20;26.50;;;;;;;-4.85;100.00;100217.14;104229;1314;22548;-29
2021/12/12 05:07:20;;;;;;;75.00;23.90;;;;;;;-4.70;100.00;100211.27;104134;1314;24157;-29
2021/12/12 05:09:52;;;;;;;40.80;15.70;;;;;;;-4.64;99.99;100210.09;103813;1314;24104;-29
2021/12/12 05:12:21;;;;;;;65.60;19.30;;;;;;;-4.59;99.82;100210.00;103836;1316;22858;-25
2021/12/12 05:14:52;;;;;;;67.00;20.60;;;;;;;-4.46;99.99;100206.17;104218;1313;24170;-25
2021/12/12 05:17:22;;;;;;;69.70;19.90;;;;;;;-4.54;99.64;100211.84;104142;1305;22493;-25
2021/12/12 05:19:53;;;;;;;77.40;23.90;;;;;;;-4.94;99.39;100216.52;104184;1314;22483;-29
2021/12/12 05:22:22;;;;;;;56.00;20.60;;;;;;;-5.12;99.64;100221.13;103996;1314;23871;-29
2021/12/12 05:24:49;;;;;;;77.50;23.30;;;;;;;-5.23;99.61;100230.58;104111;1314;22558;-26
2021/12/12 05:27:17;;;;;;;67.50;22.10;;;;;;;-5.28;99.42;100232.91;104193;1314;23147;-29
2021/12/12 05:29:45;;;;;;;24.90;12.50;;;;;;;-5.24;99.51;100233.92;104338;1313;24217;-25
2021/12/12 05:32:11;;;;;;;33.60;10.60;;;;;;;-5.04;98.91;100225.23;104090;1314;24288;-29
2021/12/12 05:34:38;;;;;;;61.00;16.60;;;;;;;-5.27;98.67;100224.80;104349;1314;24131;-29
2021/12/12 05:37:04;;;;;;;43.50;15.70;;;;;;;-5.38;99.13;100223.64;104021;1314;22470;-29
2021/12/12 05:39:30;;;;;;;54.80;19.60;;;;;;;-5.50;99.68;100219.83;104061;1310;22569;-29
2021/12/12 05:41:56;;;;;;;31.00;12.10;;;;;;;-5.19;99.35;100214.29;104042;1316;22842;-28
2021/12/12 05:44:23;;;;;;;42.60;14.80;;;;;;;-5.24;98.33;100207.39;104214;1314;24127;-25
2021/12/12 05:46:50;;;;;;;36.50;14.00;;;;;;;-5.57;98.90;100208.67;104138;1316;22459;-26
2021/12/12 05:49:15;;;;;;;36.10;13.10;;;;;;;-5.62;99.31;100216.24;104163;1314;22749;-29
2021/12/12 05:51:41;;;;;;;32.10;11.70;;;;;;;-5.52;99.99;100217.16;104134;1314;24290;-26
2021/12/12 05:54:07;;;;;;;38.30;15.30;;;;;;;-5.48;99.89;100218.54;104040;1314;22557;-25
2021/12/12 05:56:35;;;;;;;5.30;3.70;;;;;;;-5.46;99.87;100216.16;104159;1314;24121;-29
2021/12/12 05:59:01;;;;;;;26.60;10.50;;;;;;;-5.46;99.39;100212.13;104130;1310;22476;-29
2021/12/12 06:01:27;;;;;;;37.00;14.70;;;;;;;-5.69;99.07;100212.91;104198;1310;22460;-29
2021/12/12 06:03:53;;;;;;;17.80;8.00;;;;;;;-5.65;99.40;100214.80;103757;1311;24275;-29
2021/12/12 06:06:22;;;;;;;24.50;9.20;;;;;;;-5.38;97.99;100218.38;104288;1310;22720;-26
2021/12/12 06:08:49;;;;;;;24.80;9.90;;;;;;;-5.78;97.80;100221.91;104298;1314;24156;-26
2021/12/12 06:11:16;;;;;;;34.30;14.90;;;;;;;-5.83;98.55;100225.27;104000;1314;22467;-26
2021/12/12 06:13:41;;;;;;;34.50;11.00;;;;;;;-5.93;98.54;100225.60;104065;1314;24158;-26
2021/12/12 06:16:07;;;;;;;33.40;10.20;;;;;;;-5.99;99.00;100237.19;104223;1313;22778;-26
2021/12/12 06:18:34;;;;;;;29.20;11.70;;;;;;;-6.02;99.15;100235.06;104270;1307;22451;-29
2021/12/12 06:21:00;;;;;;;21.30;9.80;;;;;;;-5.72;99.46;100239.38;104040;1307;24250;-29
2021/12/12 06:23:26;;;;;;;36.20;15.30;;;;;;;-5.70;98.73;100239.99;104064;1310;24182;-29
2021/12/12 06:25:52;;;;;;;54.50;19.60;;;;;;;-5.95;98.86;100241.05;103987;1313;23780;-25
2021/12/12 06:28:23;;;;;;;46.50;16.10;;;;;;;-5.93;99.77;100242.84;104072;1310;22703;-29
2021/12/12 06:30:49;;;;;;;51.50;16.60;;;;;;;-5.88;100.00;100244.88;104261;1313;22468;-29
2021/12/12 06:33:14;;;;;;;50.40;17.90;;;;;;;-5.83;100.00;100246.20;103856;1316;22903;-28
2021/12/12 06:35:40;;;;;;;48.70;15.40;;;;;;;-5.77;100.00;100249.91;104181;1314;24929;-25
2021/12/12 06:38:08;;;;;;;43.80;15.70;;;;;;;-5.83;100.00;100254.92;104000;1314;24326;-29
2021/12/12 06:40:34;;;;;;;38.20;14.90;;;;;;;-5.76;99.92;100257.91;104307;1314;22471;-26
2021/12/12 06:43:02;;;;;;;31.60;15.70;;;;;;;-5.84;99.59;100265.98;104301;1313;22801;-29
2021/12/12 06:45:28;;;;;;;20.70;9.50;;;;;;;-5.76;99.73;100271.51;104096;1310;24129;-30
2021/12/12 06:47:54;;;;;;;20.30;8.30;;;;;;;-5.71;98.72;100274.43;103897;1314;23759;-28
2021/12/12 06:50:20;;;;;;;30.70;11.20;;;;;;;-5.89;97.93;100278.41;104162;1313;24134;-26
2021/12/12 06:52:46;;;;;;;24.30;10.00;;;;;;;-6.28;97.90;100282.29;104047;1313;24553;-26
2021/12/12 06:55:13;;;;;;;38.40;15.00;;;;;;;-6.38;98.40;100288.63;103931;1314;24238;-29
2021/12/12 06:57:39;;;;;;;21.90;9.90;;;;;;;-6.15;98.84;100282.40;103700;1313;24135;-25
2021/12/12 07:00:08;;;;;;;7.20;3.70;;;;;;;-5.83;98.41;100283.88;104043;1313;22551;-26
2021/12/12 07:02:35;;;;;;;20.70;7.20;;;;;;;-5.84;96.96;100284.98;104160;1310;22665;-26
2021/12/12 07:05:00;;;;;;;30.40;10.80;;;;;;;-6.01;96.59;100281.59;104365;1310;24242;-25
2021/12/12 07:07:26;;;;;;;9.10;3.50;;;;;;;-6.15;97.16;100278.54;104133;1314;24226;-25
2021/12/12 07:09:53;;;;;;;39.90;14.60;;;;;;;-6.13;97.08;100283.50;104188;1313;22560;-26
2021/12/12 07:12:22;;;;;;;12.60;7.00;;;;;;;-6.20;98.10;100287.69;104066;1307;26011;-29
2021/12/12 07:14:49;;;;;;;24.00;10.30;;;;;;;-6.13;97.57;100287.02;103911;1307;24104;-30
2021/12/12 07:17:15;;;;;;;41.80;13.30;;;;;;;-6.22;98.08;100287.41;104139;1302;22475;-25
2021/12/12 07:19:41;;;;;;;18.20;8.50;;;;;;;-6.20;99.04;100293.08;104071;1304;24131;-29
2021/12/12 07:22:07;;;;;;;25.90;9.80;;;;;;;-6.11;98.86;100298.98;103916;1310;24142;-26
2021/12/12 07:24:33;;;;;;;33.30;14.60;;;;;;;-6.10;98.96;100301.52;104190;1314;22826;-29
2021/12/12 07:26:59;;;;;;;39.10;14.90;;;;;;;-5.98;98.81;100298.88;103912;1314;24255;-26
2021/12/12 07:29:27;;;;;;;46.30;14.60;;;;;;;-5.99;99.32;100301.73;104079;1314;22585;-25
2021/12/12 07:31:53;;;;;;;26.30;9.10;;;;;;;-5.91;99.60;100301.70;103880;1314;25276;-29
2021/12/12 07:34:19;;;;;;;49.10;13.80;;;;;;;-5.77;99.39;100298.95;104196;1316;22453;-29
2021/12/12 07:36:53;;;;;;;16.40;7.10;;;;;;;-5.60;99.25;100299.86;104146;1313;24272;-25
2021/12/12 07:39:19;;;;;;;49.70;14.30;;;;;;;-5.87;98.16;100297.33;104173;1315;24169;-26
2021/12/12 07:41:46;;;;;;;31.90;11.90;;;;;;;-5.94;99.10;100293.11;104138;1305;22594;-25
2021/12/12 07:44:13;;;;;;;33.30;12.80;;;;;;;-5.91;98.98;100295.39;104087;1307;22560;-26
2021/12/12 07:46:39;;;;;;;16.30;6.00;;;;;;;-5.99;98.28;100302.97;103874;1314;24178;-26
2021/12/12 07:49:05;;;;;;;28.30;7.90;;;;;;;-5.69;98.48;100307.98;104178;1314;22550;-29
2021/12/12 07:51:34;;;;;;;43.80;13.10;;;;;;;-5.76;97.40;100317.21;104277;1314;25270;-26
2021/12/12 07:54:01;;;;;;;35.70;11.90;;;;;;;-5.78;97.28;100316.96;104145;1313;22603;-25
2021/12/12 07:56:29;;;;;;;40.70;14.60;;;;;;;-5.83;97.61;100320.50;104101;1314;22580;-26
2021/12/12 07:58:56;;;;;;;52.20;18.10;;;;;;;-5.93;98.11;100326.41;103897;1314;22781;-26
2021/12/12 08:01:22;;;;;;;33.70;11.60;;;;;;;-5.82;99.10;100329.36;103855;1310;24283;-29
2021/12/12 08:03:51;;;;;;;45.80;12.90;;;;;;;-5.53;99.23;100327.99;103909;1314;22726;-29
2021/12/12 08:06:17;;;;;;;55.10;16.30;;;;;;;-5.86;97.85;100334.08;104150;1305;24255;-29
2021/12/12 08:08:43;;;;;;;31.10;12.40;;;;;;;-5.47;99.27;100333.66;103955;1306;22454;-29
2021/12/12 08:11:09;;;;;;;42.10;17.40;;;;;;;-5.38;98.78;100337.43;104224;1314;22794;-26
2021/12/12 08:13:35;;;;;;;32.60;14.50;;;;;;;-5.43;98.41;100334.14;104430;1307;24133;-30
2021/12/12 08:16:01;;;;;;;36.90;12.70;;;;;;;-5.35;98.54;100325.41;103917;1310;22581;-26
2021/12/12 08:18:27;;;;;;;21.80;9.30;;;;;;;-5.13;97.99;100316.14;103889;1307;24193;-29
2021/12/12 08:20:53;;;;;;;30.40;12.60;;;;;;;-5.18;96.02;100318.14;103887;1314;23652;-26
2021/12/12 08:23:20;;;;;;;34.20;12.80;;;;;;;-5.70;95.18;100323.01;104168;1310;24144;-30
2021/12/12 08:25:46;;;;;;;52.20;17.90;;;;;;;-5.69;96.58;100324.36;104066;1314;24375;-26
2021/12/12 08:28:13;;;;;;;42.40;15.50;;;;;;;-5.32;97.15;100323.53;104092;1304;24124;-27
2021/12/12 08:30:40;;;;;;;57.60;17.40;;;;;;;-5.21;96.50;100320.71;104019;1314;24260;-31
2021/12/12 08:33:06;;;;;;;29.10;11.30;;;;;;;-5.52;95.60;100320.09;104251;1314;24140;-30
2021/12/12 08:35:32;;;;;;;10.00;5.60;;;;;;;-5.27;96.37;100319.63;103813;1314;24007;-30
2021/12/12 08:37:59;;;;;;;43.40;13.30;;;;;;;-5.16;94.57;100332.71;104010;1313;22466;-27
2021/12/12 08:40:27;;;;;;;41.80;14.60;;;;;;;-5.51;95.09;100336.95;104156;1314;22491;-30
2021/12/12 08:42:53;;;;;;;36.10;12.80;;;;;;;-5.27;96.38;100338.99;104151;1310;22470;-27
2021/12/12 08:45:22;;;;;;;25.70;9.90;;;;;;;-5.37;96.47;100346.63;104145;1314;22463;-31
2021/12/12 08:47:49;;;;;;;28.10;10.90;;;;;;;-5.19;97.18;100344.89;104196;1314;24246;-30
2021/12/12 08:50:18;;;;;;;81.70;24.00;;;;;;;-5.05;97.65;100344.19;104052;1303;22458;-27
2021/12/12 08:52:46;;;;;;;89.50;26.80;;;;;;;-4.72;98.36;100342.61;104197;1310;24110;-31
2021/12/12 08:55:19;;;;;;;78.40;23.80;;;;;;;-4.46;98.70;100341.45;103994;1314;22699;-29
2021/12/12 08:57:57;;;;;;;94.60;26.50;;;;;;;-4.45;96.11;100341.76;104225;1307;24114;-26
2021/12/12 09:00:25;;;;;;;79.30;21.40;;;;;;;-4.15;97.76;100339.86;104111;1314;24133;-27
2021/12/12 09:02:52;;;;;;;75.30;22.70;;;;;;;-4.08;94.84;100340.55;104090;1314;22481;-30
2021/12/12 09:05:23;;;;;;;63.80;26.80;;;;;;;-4.07;94.16;100341.04;103529;1314;24145;-30
2021/12/12 09:07:50;;;;;;;91.50;32.00;;;;;;;-4.09;94.16;100342.52;104052;1314;22549;-27
2021/12/12 09:10:21;;;;;;;72.20;22.30;;;;;;;-3.84;95.94;100340.66;104192;1313;22477;-30
2021/12/12 09:12:47;;;;;;;42.30;16.60;;;;;;;-3.57;96.33;100341.66;104037;1304;23922;-27
2021/12/12 09:15:18;;;;;;;41.80;15.60;;;;;;;-3.42;94.06;100345.70;104102;1314;24267;-30
2021/12/12 09:17:47;;;;;;;28.40;12.60;;;;;;;-3.91;92.66;100343.84;103814;1304;24255;-27
2021/12/12 09:20:16;;;;;;;32.50;12.30;;;;;;;-4.15;92.10;100347.58;103829;1315;24288;-27
2021/12/12 09:22:48;;;;;;;23.90;11.70;;;;;;;-4.40;92.05;100340.48;103896;1308;22902;-27
2021/12/12 09:25:14;;;;;;;38.30;14.10;;;;;;;-4.55;93.74;100342.27;103536;1315;24147;-27
2021/12/12 09:27:44;;;;;;;36.70;13.00;;;;;;;-4.42;94.37;100339.14;103985;1310;22595;-27
2021/12/12 09:30:13;;;;;;;91.00;36.10;;;;;;;-4.12;94.80;100332.20;103947;1313;24143;-27
2021/12/12 09:32:42;;;;;;;101.90;34.70;;;;;;;-3.77;95.07;100329.29;103878;1310;22463;-31
2021/12/12 09:35:13;;;;;;;164.00;56.50;;;;;;;-3.47;95.45;100332.89;103907;1313;22438;-26
2021/12/12 09:37:43;;;;;;;147.00;48.80;;;;;;;-3.12;96.09;100330.10;103851;1314;22466;-27
2021/12/12 09:40:13;;;;;;;140.30;40.90;;;;;;;-2.85;94.55;100333.09;103787;1314;25096;-27
2021/12/12 09:42:46;;;;;;;133.50;45.80;;;;;;;-2.61;94.46;100332.41;103909;1310;24180;-31
2021/12/12 09:45:19;;;;;;;230.50;71.60;;;;;;;-2.58;93.84;100334.88;104069;1313;22683;-27
2021/12/12 09:53:00;;;;;;;87.70;30.60;;;;;;;-2.35;89.12;100324.16;104072;1314;22438;-31
2021/12/12 09:55:33;;;;;;;74.90;34.30;;;;;;;-2.28;90.12;100324.48;104051;1314;25266;-27
2021/12/12 09:58:00;;;;;;;73.00;32.60;;;;;;;-2.30;91.40;100325.84;103957;1314;22703;-30
2021/12/12 10:00:32;;;;;;;83.00;31.40;;;;;;;-2.38;89.22;100326.81;103896;1313;22736;-27
2021/12/12 10:03:21;;;;;;;65.50;29.40;;;;;;;-2.21;90.22;100325.13;104224;1310;23320;-30
2021/12/12 10:05:47;;;;;;;97.20;33.60;;;;;;;-2.06;91.55;100323.84;103840;1304;22459;-31
2021/12/12 10:08:14;;;;;;;73.30;25.00;;;;;;;-1.91;90.27;100318.17;103870;1310;24353;-27
2021/12/12 10:10:47;;;;;;;111.10;37.50;;;;;;;-1.77;90.11;100315.05;103822;1314;24145;-27
2021/12/12 10:13:21;;;;;;;113.10;32.80;;;;;;;-1.74;89.27;100314.31;103784;1304;24374;-27
2021/12/12 10:15:51;;;;;;;82.10;32.80;;;;;;;-1.47;90.39;100314.73;103839;1312;23308;-27
2021/12/12 10:18:21;;;;;;;100.80;32.10;;;;;;;-1.32;90.80;100319.63;103767;1315;22929;-31
2021/12/12 10:20:53;;;;;;;119.90;41.10;;;;;;;-1.14;91.03;100314.04;103782;1305;24144;-27
2021/12/12 10:23:29;;;;;;;139.90;46.10;;;;;;;-1.00;89.23;100314.55;103775;1304;24238;-30
2021/12/12 10:26:02;;;;;;;110.70;39.60;;;;;;;-0.95;88.93;100311.92;103931;1314;24121;-27
2021/12/12 10:28:34;;;;;;;124.70;35.30;;;;;;;-0.87;89.10;100311.08;104092;1314;22467;-30
2021/12/12 10:31:05;;;;;;;153.30;46.30;;;;;;;-0.68;89.80;100310.86;103942;1310;22464;-31
2021/12/12 10:33:34;;;;;;;121.80;40.00;;;;;;;-0.71;89.26;100308.21;104037;1314;22731;-31
2021/12/12 10:36:05;;;;;;;96.70;31.30;;;;;;;-0.82;88.11;100309.86;104182;1310;24144;-30
2021/12/12 10:38:36;;;;;;;91.10;32.60;;;;;;;-0.76;89.59;100303.26;104331;1314;24121;-27
2021/12/12 10:41:08;;;;;;;85.00;31.20;;;;;;;-0.58;89.74;100292.35;104244;1313;24154;-27
2021/12/12 10:43:37;;;;;;;85.00;30.90;;;;;;;-0.43;88.09;100291.92;104088;1315;22439;-31
2021/12/12 10:46:10;;;;;;;82.00;28.70;;;;;;;-0.38;88.87;100291.92;103707;1310;22440;-30
2021/12/12 10:48:43;;;;;;;65.00;23.10;;;;;;;-0.21;88.55;100291.61;104152;1310;24187;-27
2021/12/12 10:51:11;;;;;;;71.00;26.00;;;;;;;-0.05;86.45;100283.14;104153;1315;23848;-27
2021/12/12 10:53:44;;;;;;;83.80;31.60;;;;;;;0.13;86.72;100280.86;104197;1314;24577;-27
2021/12/12 10:56:13;;;;;;;85.70;36.90;;;;;;;0.29;85.40;100278.63;104195;1314;23925;-31
2021/12/12 10:58:43;;;;;;;87.30;37.70;;;;;;;0.50;85.58;100281.35;104276;1310;22453;-27
2021/12/12 11:01:14;;;;;;;96.20;42.10;;;;;;;0.65;85.78;100285.34;104201;1314;22474;-31
2021/12/12 11:03:45;;;;;;;98.20;41.60;;;;;;;0.80;87.40;100288.00;104068;1313;22464;-31
2021/12/12 11:06:16;;;;;;;126.40;56.00;;;;;;;0.77;83.32;100291.54;104234;1305;22462;-31
2021/12/12 11:08:51;;;;;;;81.90;37.80;;;;;;;0.68;84.64;100287.45;104172;1314;22474;-27
2021/12/12 11:11:19;;;;;;;95.70;42.60;;;;;;;0.64;84.34;100286.81;104173;1315;23939;-31
2021/12/12 11:13:51;;;;;;;84.10;39.70;;;;;;;0.66;84.77;100288.50;104236;1302;22768;-31
2021/12/12 11:16:25;;;;;;;96.50;42.20;;;;;;;0.73;83.66;100287.95;104212;1313;24263;-31
2021/12/12 11:18:56;;;;;;;148.00;61.60;;;;;;;0.73;81.56;100292.71;104193;1313;22586;-31
2021/12/12 11:21:28;;;;;;;110.50;44.50;;;;;;;0.69;79.49;100292.82;104076;1316;22807;-31
2021/12/12 11:24:01;;;;;;;144.90;60.90;;;;;;;0.88;81.93;100294.08;104018;1313;24144;-27
2021/12/12 11:26:34;;;;;;;93.40;37.10;;;;;;;1.38;85.51;100287.39;104140;1311;22471;-27
2021/12/12 11:29:05;;;;;;;92.50;38.00;;;;;;;2.05;85.53;100277.06;104148;1310;25409;-31
2021/12/12 11:31:37;;;;;;;93.70;39.40;;;;;;;2.48;78.10;100276.16;104157;1314;22468;-31
2021/12/12 11:34:05;;;;;;;90.40;41.60;;;;;;;2.53;74.62;100278.41;104359;1314;22776;-28